Time;durP1;ratioP1;P1;durP2;ratioP2;P2;SDS_P1;SDS_P2;PMS_P1;PMS_P2;Temp;Humidity;BMP_temperature;BMP_pressure;BME280_temperature;BME280_humidity;BME280_pressure;Samples;Min_cycle;Max_cycle;Signal;HPM_P1;HPM_P2
2021/12/27 00:01:08;;;;;;;23.63;15.67;;;;;;;1.24;92.87;99918.38;5093976;28;20684;-75
2021/12/27 00:03:35;;;;;;;23.43;15.27;;;;;;;1.19;93.18;99909.00;5094281;28;20182;-75
2021/12/27 00:06:01;;;;;;;23.80;15.37;;;;;;;1.19;93.15;99915.00;5093497;28;20579;-75
2021/12/27 00:08:28;;;;;;;29.53;17.03;;;;;;;1.19;93.05;99911.56;5093609;28;20295;-74
2021/12/27 00:10:54;;;;;;;29.67;16.30;;;;;;;1.17;93.07;99909.03;5093576;28;20189;-75
2021/12/27 00:13:21;;;;;;;23.20;16.13;;;;;;;1.19;93.32;99907.25;5093817;28;20189;-75
2021/12/27 00:15:47;;;;;;;25.80;17.17;;;;;;;1.20;93.28;99903.81;5094035;28;20210;-75
2021/12/27 00:18:14;;;;;;;27.00;16.67;;;;;;;1.29;92.83;99898.53;5093642;28;20189;-75
2021/12/27 00:20:40;;;;;;;25.13;17.30;;;;;;;1.15;92.50;99899.63;5093769;28;20647;-75
2021/12/27 00:23:07;;;;;;;25.00;16.03;;;;;;;1.14;92.96;99891.00;5094179;28;20209;-75
2021/12/27 00:25:33;;;;;;;25.70;17.27;;;;;;;1.18;92.92;99889.25;5093530;28;20217;-75
2021/12/27 00:28:00;;;;;;;26.07;16.03;;;;;;;1.16;93.07;99889.28;5092167;28;20318;-75
2021/12/27 00:30:26;;;;;;;24.83;16.13;;;;;;;1.09;93.01;99892.84;5093349;28;20189;-75
2021/12/27 00:32:53;;;;;;;23.37;15.23;;;;;;;1.09;93.05;99895.41;5093633;28;20197;-75
2021/12/27 00:35:19;;;;;;;36.70;17.07;;;;;;;1.10;93.28;99891.97;5094043;28;20582;-75
2021/12/27 00:37:46;;;;;;;18.07;13.93;;;;;;;1.06;92.94;99888.56;5092149;28;20194;-75
2021/12/27 00:40:13;;;;;;;22.33;14.23;;;;;;;1.04;93.47;99880.00;5093284;28;20204;-75
2021/12/27 00:42:40;;;;;;;21.53;15.03;;;;;;;1.03;93.57;99873.16;5093254;28;20548;-75
2021/12/27 00:45:08;;;;;;;19.97;15.13;;;;;;;1.11;93.82;99883.34;5125952;28;20290;-75
2021/12/27 00:47:35;;;;;;;18.80;14.70;;;;;;;1.10;93.42;99873.91;5093278;28;20201;-75
2021/12/27 00:50:04;;;;;;;21.23;14.33;;;;;;;1.11;93.62;99875.59;5093452;28;20201;-75
2021/12/27 00:52:32;;;;;;;19.23;14.40;;;;;;;1.14;93.44;99869.53;5093163;28;20201;-75
2021/12/27 00:54:59;;;;;;;23.57;15.13;;;;;;;1.24;93.57;99866.81;5093072;28;20205;-75
2021/12/27 00:57:26;;;;;;;19.57;15.20;;;;;;;1.17;93.44;99857.47;5093156;28;20185;-75
2021/12/27 00:59:52;;;;;;;23.87;15.83;;;;;;;1.14;93.73;99861.81;5093117;28;20192;-75
2021/12/27 01:02:19;;;;;;;19.77;14.50;;;;;;;1.21;93.76;99860.81;5093092;28;20194;-75
2021/12/27 01:04:45;;;;;;;29.07;16.03;;;;;;;1.26;93.76;99857.31;5126108;28;20221;-75
2021/12/27 01:07:12;;;;;;;22.20;14.90;;;;;;;1.29;93.65;99846.94;5093056;28;20186;-75
2021/12/27 01:10:11;;;;;;;24.50;15.03;;;;;;;1.27;93.99;99856.41;5093053;28;20189;-75
2021/12/27 01:17:46;;;;;;;24.10;14.87;;;;;;;1.30;94.08;99869.28;5093237;28;20190;-75
2021/12/27 01:20:17;;;;;;;20.40;15.03;;;;;;;1.37;93.94;99877.75;5093173;28;20256;-75
2021/12/27 01:22:44;;;;;;;20.37;13.47;;;;;;;1.33;94.08;99873.53;5093243;28;20178;-74
2021/12/27 01:25:12;;;;;;;21.63;14.27;;;;;;;1.35;94.23;99875.19;5092744;28;20210;-73
2021/12/27 01:27:40;;;;;;;20.83;15.17;;;;;;;1.30;94.33;99877.00;5092829;28;20194;-73
2021/12/27 01:30:09;;;;;;;20.30;14.50;;;;;;;1.34;94.31;99863.16;5092821;28;20182;-73
2021/12/27 01:32:43;;;;;;;21.47;14.83;;;;;;;1.36;94.31;99869.19;5095954;28;20235;-73
2021/12/27 01:35:09;;;;;;;23.77;15.50;;;;;;;1.42;94.21;99869.91;5096802;28;20612;-73
2021/12/27 01:37:36;;;;;;;22.43;15.67;;;;;;;1.45;94.28;99877.63;5096457;28;20186;-73
2021/12/27 01:40:04;;;;;;;21.23;15.40;;;;;;;1.42;94.42;99877.66;5129281;27;20659;-73
2021/12/27 01:42:31;;;;;;;25.43;15.63;;;;;;;1.43;94.46;99869.03;5096341;28;20186;-73
2021/12/27 01:44:57;;;;;;;21.90;15.80;;;;;;;1.47;94.55;99865.53;5096173;28;20206;-73
2021/12/27 01:47:24;;;;;;;24.00;15.80;;;;;;;1.53;94.57;99861.13;5096829;28;20186;-73
2021/12/27 01:49:50;;;;;;;20.07;15.23;;;;;;;1.61;94.06;99859.25;5096439;28;20252;-76
2021/12/27 01:52:17;;;;;;;19.17;15.50;;;;;;;1.61;94.15;99855.81;5096861;28;20186;-76
2021/12/27 01:54:43;;;;;;;18.93;15.67;;;;;;;1.59;94.23;99853.28;5096081;28;20750;-75
2021/12/27 01:57:11;;;;;;;27.63;15.97;;;;;;;1.58;94.27;99853.31;5096326;28;20182;-75
2021/12/27 01:59:38;;;;;;;23.00;14.83;;;;;;;1.68;94.21;99847.09;5096037;28;20182;-74
2021/12/27 02:02:04;;;;;;;26.23;15.80;;;;;;;1.65;94.24;99853.16;5096231;28;20197;-74
2021/12/27 02:04:31;;;;;;;17.80;14.43;;;;;;;1.64;94.42;99860.91;5096039;28;20194;-74
2021/12/27 02:06:57;;;;;;;20.43;14.33;;;;;;;1.62;94.46;99848.03;5096414;28;20197;-74
2021/12/27 02:09:34;;;;;;;24.10;15.00;;;;;;;1.63;94.43;99851.47;5095869;28;20585;-74
2021/12/27 02:12:00;;;;;;;21.53;13.73;;;;;;;1.71;94.52;99844.44;5096088;28;20174;-74
2021/12/27 02:14:28;;;;;;;24.37;14.97;;;;;;;1.73;94.37;99845.28;5095918;28;20182;-74
2021/12/27 02:16:54;;;;;;;27.67;15.80;;;;;;;1.73;94.30;99842.69;5095680;28;20194;-74
2021/12/27 02:19:21;;;;;;;22.07;14.70;;;;;;;1.78;94.25;99838.28;5095634;28;20217;-74
2021/12/27 02:21:47;;;;;;;25.03;15.97;;;;;;;1.78;94.39;99840.00;5095606;28;20190;-74
2021/12/27 02:24:14;;;;;;;22.60;14.67;;;;;;;1.77;94.24;99841.75;5096041;28;20198;-73
2021/12/27 02:26:41;;;;;;;19.63;14.17;;;;;;;1.84;94.22;99838.16;5095484;28;20229;-73
2021/12/27 02:29:09;;;;;;;21.53;14.67;;;;;;;1.87;94.20;99838.13;5095440;28;20182;-73
2021/12/27 02:31:39;;;;;;;16.87;14.70;;;;;;;1.88;94.13;99829.47;5095411;28;20682;-73
2021/12/27 02:34:08;;;;;;;20.47;14.13;;;;;;;1.93;94.10;99834.56;5095695;28;20297;-73
2021/12/27 02:36:35;;;;;;;22.80;15.70;;;;;;;1.93;94.07;99838.00;5095284;28;20202;-73
2021/12/27 02:39:02;;;;;;;18.37;14.60;;;;;;;1.94;94.12;99820.78;5095288;28;20189;-73
2021/12/27 02:41:29;;;;;;;18.80;14.77;;;;;;;2.00;94.16;99827.50;5095454;28;20235;-73
2021/12/27 02:43:55;;;;;;;18.27;14.00;;;;;;;1.98;94.17;99822.38;5095148;28;20182;-73
2021/12/27 02:46:22;;;;;;;22.40;14.43;;;;;;;2.07;93.95;99821.34;5095225;28;20228;-73
2021/12/27 02:48:48;;;;;;;18.40;13.90;;;;;;;2.05;94.15;99818.81;5095336;28;20200;-73
2021/12/27 02:51:18;;;;;;;18.13;13.40;;;;;;;2.03;94.23;99825.72;5095321;28;20182;-73
2021/12/27 02:53:46;;;;;;;16.80;13.00;;;;;;;2.00;94.43;99817.19;5095582;28;20182;-73
2021/12/27 02:56:13;;;;;;;16.23;13.27;;;;;;;2.05;94.75;99820.53;5094884;28;20197;-72
2021/12/27 02:58:40;;;;;;;17.07;13.77;;;;;;;2.10;94.45;99813.56;5093790;28;20197;-74
2021/12/27 03:01:10;;;;;;;18.40;14.30;;;;;;;2.12;94.32;99814.34;5094840;28;20190;-74
2021/12/27 03:03:38;;;;;;;16.10;12.90;;;;;;;2.09;94.44;99809.28;5095371;28;20178;-74
2021/12/27 03:06:06;;;;;;;17.70;13.13;;;;;;;2.06;94.76;99814.47;5094079;28;20218;-73
2021/12/27 03:08:34;;;;;;;17.63;13.70;;;;;;;2.07;94.80;99813.59;5095249;28;20520;-73
2021/12/27 03:11:03;;;;;;;19.67;13.33;;;;;;;2.10;94.82;99808.38;5094659;28;20551;-73
2021/12/27 03:13:35;;;;;;;20.00;14.33;;;;;;;2.10;94.94;99808.38;5094940;28;20236;-73
2021/12/27 03:16:11;;;;;;;23.30;15.80;;;;;;;2.23;94.68;99802.06;5093279;28;20214;-73
2021/12/27 03:18:41;;;;;;;17.43;12.27;;;;;;;2.21;94.51;99803.81;5095130;28;20166;-73
2021/12/27 03:21:08;;;;;;;17.30;13.37;;;;;;;2.28;94.34;99810.53;5094778;28;20178;-73
2021/12/27 03:23:37;;;;;;;14.13;12.63;;;;;;;2.24;94.46;99798.59;5094466;28;20185;-74
2021/12/27 03:26:04;;;;;;;18.53;13.17;;;;;;;2.24;94.45;99796.03;5094575;28;20305;-73
2021/12/27 03:28:32;;;;;;;13.07;11.67;;;;;;;2.23;94.42;99799.50;5127258;27;20552;-73
2021/12/27 03:30:58;;;;;;;17.97;12.40;;;;;;;2.27;94.79;99795.94;5094563;28;20185;-73
2021/12/27 03:33:26;;;;;;;18.70;12.33;;;;;;;2.27;94.93;99798.53;5094191;28;20190;-73
2021/12/27 03:36:03;;;;;;;15.07;12.23;;;;;;;2.32;94.90;99793.28;5094164;28;20209;-73
2021/12/27 03:38:33;;;;;;;20.00;12.33;;;;;;;2.31;95.22;99794.16;5094726;28;20196;-73
2021/12/27 03:41:01;;;;;;;21.00;13.17;;;;;;;2.33;95.00;99793.22;5094056;28;20204;-73
2021/12/27 03:43:28;;;;;;;13.47;11.80;;;;;;;2.39;94.99;99790.50;5094325;28;20183;-73
2021/12/27 03:45:54;;;;;;;15.67;11.47;;;;;;;2.35;95.20;99798.34;5094203;28;20206;-73
2021/12/27 03:48:21;;;;;;;17.17;13.27;;;;;;;2.28;95.49;99792.47;5094234;28;20184;-73
2021/12/27 03:50:48;;;;;;;19.17;14.43;;;;;;;2.40;94.98;99794.78;5093939;28;20186;-74
2021/12/27 03:53:15;;;;;;;14.13;12.50;;;;;;;2.42;95.15;99787.00;5092392;28;20536;-74
2021/12/27 03:55:41;;;;;;;16.10;13.17;;;;;;;2.38;95.38;99790.56;5093996;28;20204;-74
2021/12/27 03:58:23;;;;;;;18.43;14.10;;;;;;;2.40;95.40;99786.19;5094404;28;20605;-73
2021/12/27 04:03:17;;;;;;;22.67;12.87;;;;;;;2.57;94.91;99778.03;5094014;28;20574;-73
2021/12/27 04:05:45;;;;;;;12.70;11.43;;;;;;;2.38;95.75;99777.63;5093527;28;20210;-73
2021/12/27 04:08:13;;;;;;;15.23;12.43;;;;;;;2.32;95.77;99782.94;5093888;28;20818;-73
2021/12/27 04:10:41;;;;;;;25.23;15.60;;;;;;;2.29;96.21;99780.44;5093635;28;20652;-73
2021/12/27 04:13:09;;;;;;;20.23;14.97;;;;;;;2.28;96.31;99782.13;5093597;28;20198;-73
2021/12/27 04:15:37;;;;;;;18.63;13.20;;;;;;;2.33;96.49;99784.63;5093453;28;20203;-73
2021/12/27 04:18:05;;;;;;;17.33;13.90;;;;;;;2.36;96.28;99774.25;5093837;28;20175;-73
2021/12/27 04:20:32;;;;;;;14.03;12.57;;;;;;;2.42;96.13;99774.94;5093818;28;20196;-73
2021/12/27 04:22:58;;;;;;;17.50;12.30;;;;;;;2.46;96.23;99773.13;5093721;28;20193;-73
2021/12/27 04:25:25;;;;;;;13.43;12.13;;;;;;;2.50;96.11;99772.19;5093855;28;20206;-73
2021/12/27 04:27:51;;;;;;;21.63;13.80;;;;;;;2.47;96.19;99770.50;5092170;28;20597;-73
2021/12/27 04:30:19;;;;;;;13.17;11.83;;;;;;;2.55;96.13;99767.75;5093964;28;20194;-73
2021/12/27 04:32:48;;;;;;;15.50;12.57;;;;;;;2.49;96.16;99770.47;5093380;28;20216;-74
2021/12/27 04:35:17;;;;;;;17.40;13.00;;;;;;;2.57;96.17;99772.88;5093259;28;20262;-74
2021/12/27 04:37:45;;;;;;;22.70;14.00;;;;;;;2.59;96.16;99771.13;5093327;28;20189;-74
2021/12/27 04:40:13;;;;;;;20.63;13.37;;;;;;;2.62;96.09;99768.44;5093600;28;20670;-74
2021/12/27 04:42:45;;;;;;;15.87;12.77;;;;;;;2.65;96.24;99763.22;5093313;28;20195;-74
2021/12/27 04:45:13;;;;;;;13.23;11.97;;;;;;;2.69;96.25;99757.91;5093136;28;20217;-74
2021/12/27 04:47:40;;;;;;;14.93;12.73;;;;;;;2.71;96.26;99760.47;5093238;28;20186;-74
2021/12/27 04:50:07;;;;;;;17.23;13.23;;;;;;;2.72;96.34;99751.84;5093529;28;20213;-74
2021/12/27 04:52:34;;;;;;;39.90;19.60;;;;;;;2.68;96.45;99745.88;5093430;28;20675;-74
2021/12/27 04:55:01;;;;;;;25.23;15.87;;;;;;;2.75;96.34;99744.00;5093101;28;20206;-74
2021/12/27 04:57:28;;;;;;;13.53;12.30;;;;;;;2.72;96.44;99741.50;5091963;28;20185;-74
2021/12/27 04:59:55;;;;;;;11.87;10.87;;;;;;;2.73;96.56;99736.28;5093128;28;20190;-74
2021/12/27 05:02:21;;;;;;;17.40;14.10;;;;;;;2.70;96.58;99735.50;5093319;28;20240;-74
2021/12/27 05:04:48;;;;;;;18.10;13.63;;;;;;;2.79;96.39;99732.72;5095272;28;20687;-74
2021/12/27 05:07:14;;;;;;;17.77;12.57;;;;;;;2.80;96.45;99728.38;5096981;28;20206;-74
2021/12/27 05:09:41;;;;;;;16.43;13.27;;;;;;;2.78;96.77;99730.16;5097012;28;20196;-74
2021/12/27 05:12:07;;;;;;;17.07;13.53;;;;;;;2.78;96.80;99732.72;5097508;28;20193;-74
2021/12/27 05:14:34;;;;;;;20.50;13.23;;;;;;;2.72;96.85;99723.41;5097128;28;20251;-74
2021/12/27 05:17:00;;;;;;;18.57;12.43;;;;;;;2.83;96.88;99718.81;5097170;28;20189;-74
2021/12/27 05:19:27;;;;;;;15.90;12.50;;;;;;;2.79;96.75;99719.78;5096136;28;20190;-74
2021/12/27 05:21:53;;;;;;;14.13;12.17;;;;;;;2.78;96.83;99720.66;5129673;27;20193;-74
2021/12/27 05:24:22;;;;;;;15.73;11.77;;;;;;;2.82;96.89;99714.53;5096665;28;20193;-74
2021/12/27 05:26:49;;;;;;;17.23;13.50;;;;;;;2.83;96.85;99725.72;5095339;28;20631;-75
2021/12/27 05:29:17;;;;;;;21.20;14.83;;;;;;;2.81;96.86;99730.94;5096613;28;20190;-75
2021/12/27 05:31:44;;;;;;;21.40;13.53;;;;;;;2.84;96.93;99724.81;5096605;28;20186;-75
2021/12/27 05:34:11;;;;;;;23.30;14.30;;;;;;;2.86;97.04;99721.34;5096563;28;20232;-74
2021/12/27 05:36:38;;;;;;;14.83;13.00;;;;;;;2.88;97.00;99727.31;5096413;28;20208;-74
2021/12/27 05:39:04;;;;;;;17.63;13.80;;;;;;;2.92;96.97;99725.47;5096773;28;20189;-74
2021/12/27 05:41:31;;;;;;;19.47;13.13;;;;;;;2.87;97.06;99725.59;5096405;28;20183;-74
2021/12/27 05:43:57;;;;;;;26.17;14.13;;;;;;;3.00;97.04;99720.94;5096348;28;20186;-74
2021/12/27 05:46:24;;;;;;;20.53;13.87;;;;;;;2.96;96.90;99712.44;5096208;28;20215;-74
2021/12/27 05:48:50;;;;;;;21.53;13.03;;;;;;;2.91;96.97;99703.94;5096612;28;20217;-74
2021/12/27 05:51:17;;;;;;;17.53;13.20;;;;;;;3.05;97.10;99703.56;5096226;28;20231;-74
2021/12/27 05:53:43;;;;;;;20.90;12.07;;;;;;;2.94;97.29;99701.28;5096171;28;20186;-74
2021/12/27 05:56:10;;;;;;;19.57;13.33;;;;;;;2.93;97.42;99702.19;5096202;28;20616;-74
2021/12/27 05:58:36;;;;;;;12.80;11.57;;;;;;;2.94;97.29;99698.69;5096044;28;20528;-74
2021/12/27 06:01:03;;;;;;;16.47;12.63;;;;;;;3.03;97.43;99701.03;5128884;27;20204;-74
2021/12/27 06:03:30;;;;;;;15.27;11.47;;;;;;;3.14;97.46;99692.13;5094749;28;20584;-74
2021/12/27 06:05:56;;;;;;;13.97;12.23;;;;;;;3.02;97.23;99696.75;5096041;28;20208;-74
2021/12/27 06:08:22;;;;;;;15.93;12.43;;;;;;;3.02;97.36;99703.66;5095242;28;20194;-74
2021/12/27 06:10:49;;;;;;;13.73;11.37;;;;;;;3.06;97.23;99694.91;5095795;28;20192;-73
2021/12/27 06:13:16;;;;;;;19.43;12.17;;;;;;;3.08;97.29;99694.91;5095763;28;20193;-73
2021/12/27 06:15:43;;;;;;;14.77;12.47;;;;;;;3.02;97.33;99694.16;5095232;28;20214;-73
2021/12/27 06:18:09;;;;;;;11.97;10.87;;;;;;;3.04;97.33;99694.97;5095729;28;20194;-73
2021/12/27 06:20:36;;;;;;;20.50;13.17;;;;;;;3.07;97.11;99685.44;5096534;28;20523;-73
2021/12/27 06:23:03;;;;;;;15.27;13.10;;;;;;;3.09;97.24;99683.66;5096089;28;20242;-73
2021/12/27 06:25:29;;;;;;;13.93;11.87;;;;;;;3.10;97.07;99675.00;5095700;28;20205;-73
2021/12/27 06:27:56;;;;;;;16.93;11.83;;;;;;;3.08;96.74;99687.16;5095375;28;20255;-73
2021/12/27 06:30:23;;;;;;;15.57;12.03;;;;;;;3.05;96.90;99682.88;5095796;28;20187;-74
2021/12/27 06:32:49;;;;;;;16.10;11.90;;;;;;;2.98;97.00;99681.34;5095443;28;20209;-75
2021/12/27 06:35:17;;;;;;;12.53;11.43;;;;;;;2.99;97.18;99683.06;5095309;28;20214;-74
2021/12/27 06:37:45;;;;;;;14.10;11.53;;;;;;;2.99;97.39;99681.31;5095622;28;20183;-74
2021/12/27 06:40:13;;;;;;;23.33;14.77;;;;;;;2.88;97.31;99680.78;5095822;28;20174;-74
2021/12/27 06:42:41;;;;;;;19.30;13.33;;;;;;;2.87;97.35;99678.22;5128152;27;20196;-74
2021/12/27 06:45:08;;;;;;;19.57;13.97;;;;;;;2.84;97.45;99686.06;5095055;28;20210;-74
2021/12/27 06:47:35;;;;;;;21.53;14.03;;;;;;;2.88;97.56;99692.84;5093781;28;20752;-75
2021/12/27 06:50:03;;;;;;;15.00;13.40;;;;;;;2.91;97.70;99693.59;5095631;28;20185;-75
2021/12/27 06:52:30;;;;;;;18.97;13.53;;;;;;;2.98;97.49;99682.19;5095287;28;20541;-75
2021/12/27 06:54:57;;;;;;;21.13;12.20;;;;;;;3.01;97.40;99689.91;5095181;28;20230;-74
2021/12/27 06:57:29;;;;;;;17.37;13.20;;;;;;;2.98;97.38;99700.31;5094890;28;20177;-74
2021/12/27 07:00:01;;;;;;;17.17;13.20;;;;;;;3.03;97.60;99698.44;5093647;28;20279;-74
2021/12/27 07:02:27;;;;;;;14.33;12.67;;;;;;;3.08;97.36;99697.50;5094867;28;20273;-74
2021/12/27 07:04:54;;;;;;;16.83;13.50;;;;;;;3.11;97.45;99698.25;5094789;28;20267;-74
2021/12/27 07:07:22;;;;;;;17.67;14.50;;;;;;;3.14;97.37;99694.72;5094703;28;20207;-74
2021/12/27 07:09:49;;;;;;;20.17;13.97;;;;;;;3.18;97.23;99689.41;5095276;28;20197;-74
2021/12/27 07:12:16;;;;;;;14.40;12.63;;;;;;;3.22;96.94;99695.38;5094668;28;20237;-74
2021/12/27 07:14:43;;;;;;;14.67;12.70;;;;;;;3.21;97.21;99698.81;5095010;28;20277;-74
2021/12/27 07:17:09;;;;;;;16.43;13.07;;;;;;;3.25;97.13;99696.13;5094591;28;20188;-74
2021/12/27 07:19:36;;;;;;;14.90;13.17;;;;;;;3.28;96.88;99695.19;5094523;28;20661;-74
2021/12/27 07:22:02;;;;;;;13.63;12.20;;;;;;;3.37;96.78;99689.75;5094746;28;20203;-74
2021/12/27 07:24:29;;;;;;;15.97;12.67;;;;;;;3.30;96.73;99696.84;5093153;28;20199;-74
2021/12/27 07:26:55;;;;;;;13.03;11.63;;;;;;;3.29;96.74;99694.31;5093682;28;20220;-74
2021/12/27 07:29:22;;;;;;;13.60;12.00;;;;;;;3.29;97.03;99692.56;5093893;28;20710;-74
2021/12/27 07:31:49;;;;;;;13.37;12.07;;;;;;;3.39;97.16;99693.16;5094303;28;20235;-74
2021/12/27 07:34:19;;;;;;;13.40;12.10;;;;;;;3.41;97.03;99686.19;5094666;28;20220;-74
2021/12/27 07:36:47;;;;;;;12.77;11.47;;;;;;;3.42;96.92;99687.88;5093799;28;20583;-74
2021/12/27 07:39:14;;;;;;;13.37;11.97;;;;;;;3.40;96.83;99686.22;5094148;28;20189;-74
2021/12/27 07:41:42;;;;;;;12.70;11.37;;;;;;;3.31;96.99;99687.34;5094701;28;20196;-74
2021/12/27 07:44:09;;;;;;;19.77;12.33;;;;;;;3.43;97.06;99687.00;5094074;28;20527;-74
2021/12/27 07:46:40;;;;;;;17.03;13.27;;;;;;;3.43;96.86;99679.25;5093878;28;20216;-74
2021/12/27 07:49:08;;;;;;;14.40;11.47;;;;;;;3.39;97.07;99682.81;5094271;28;20190;-74
2021/12/27 07:51:35;;;;;;;13.17;10.37;;;;;;;3.37;97.29;99686.34;5094187;28;20646;-74
2021/12/27 07:54:02;;;;;;;13.80;11.33;;;;;;;3.43;97.18;99680.94;5094142;28;20173;-74
2021/12/27 07:56:29;;;;;;;16.17;11.33;;;;;;;3.45;97.26;99687.81;5092468;28;20213;-74
2021/12/27 07:58:55;;;;;;;16.40;10.97;;;;;;;3.43;97.26;99689.59;5126670;27;20199;-74
2021/12/27 08:01:22;;;;;;;11.57;10.37;;;;;;;3.45;97.24;99684.38;5092608;28;20189;-76
2021/12/27 08:03:49;;;;;;;14.40;11.30;;;;;;;3.42;97.25;99681.84;5094178;28;20188;-75
2021/12/27 08:06:15;;;;;;;13.27;10.43;;;;;;;3.46;97.21;99681.72;5093572;28;20205;-74
2021/12/27 08:08:41;;;;;;;13.73;10.80;;;;;;;3.52;97.29;99681.56;5094145;28;20246;-74
2021/12/27 08:11:08;;;;;;;11.83;10.27;;;;;;;3.56;97.17;99680.56;5093020;28;20192;-74
2021/12/27 08:13:37;;;;;;;11.10;10.23;;;;;;;3.58;97.10;99683.13;5093677;28;20231;-74
2021/12/27 08:16:04;;;;;;;11.63;10.40;;;;;;;3.63;97.19;99686.41;5075437;28;20228;-74
2021/12/27 08:18:31;;;;;;;12.13;10.90;;;;;;;3.65;97.14;99678.63;5093597;28;20189;-74
2021/12/27 08:20:57;;;;;;;10.97;9.77;;;;;;;3.66;97.22;99680.31;5094001;28;20650;-74
2021/12/27 08:23:23;;;;;;;11.47;10.50;;;;;;;3.67;97.19;99677.66;5092257;28;20184;-74
2021/12/27 08:25:50;;;;;;;11.20;10.30;;;;;;;3.71;96.84;99676.66;5093628;28;20212;-75
2021/12/27 08:28:17;;;;;;;11.10;10.10;;;;;;;3.75;97.15;99673.09;5092095;28;20746;-75
2021/12/27 08:30:43;;;;;;;15.60;10.83;;;;;;;3.80;97.13;99662.63;5093379;28;20532;-75
2021/12/27 08:33:10;;;;;;;11.50;10.50;;;;;;;3.82;97.09;99658.22;5093707;28;20192;-75
2021/12/27 08:35:37;;;;;;;10.57;9.83;;;;;;;3.85;97.25;99658.13;5093839;28;20217;-75
2021/12/27 08:38:04;;;;;;;11.83;10.63;;;;;;;3.86;97.40;99665.88;5093613;28;20569;-74
2021/12/27 08:40:30;;;;;;;17.03;12.73;;;;;;;3.94;97.20;99669.97;5097105;28;20189;-74
2021/12/27 08:42:57;;;;;;;12.83;11.50;;;;;;;3.95;97.10;99659.56;5097565;28;20242;-74
2021/12/27 08:45:23;;;;;;;12.40;11.30;;;;;;;3.95;97.13;99656.97;5097401;28;20209;-74
2021/12/27 08:47:55;;;;;;;11.63;10.43;;;;;;;4.08;97.17;99647.06;5097686;28;20205;-74
2021/12/27 08:50:22;;;;;;;17.30;10.23;;;;;;;4.19;97.08;99650.13;5097679;28;20650;-74
2021/12/27 08:52:50;;;;;;;10.60;9.60;;;;;;;4.25;97.27;99646.50;5097377;28;20276;-74
2021/12/27 08:55:16;;;;;;;11.87;10.67;;;;;;;4.36;97.55;99637.50;5097226;28;20216;-74
2021/12/27 08:57:44;;;;;;;12.10;11.10;;;;;;;4.48;97.70;99656.09;5097477;28;20189;-74
2021/12/27 09:00:14;;;;;;;11.90;10.63;;;;;;;4.55;97.62;99648.06;5097211;28;20242;-74
2021/12/27 09:02:42;;;;;;;12.57;11.43;;;;;;;4.65;97.60;99652.06;5097521;28;20178;-74
2021/12/27 09:05:09;;;;;;;19.13;11.87;;;;;;;4.77;97.40;99643.00;5097065;28;20208;-74
2021/12/27 09:07:36;;;;;;;14.20;12.00;;;;;;;4.87;97.32;99649.56;5097012;28;20205;-74
2021/12/27 09:10:05;;;;;;;11.10;10.20;;;;;;;4.96;97.17;99656.16;5095807;28;20185;-74
2021/12/27 09:12:31;;;;;;;12.37;11.33;;;;;;;4.98;96.93;99657.78;5096939;28;20189;-76
2021/12/27 09:14:58;;;;;;;12.77;11.43;;;;;;;4.96;97.03;99649.22;5097037;28;20697;-75
2021/12/27 09:17:24;;;;;;;16.17;11.00;;;;;;;5.06;96.87;99654.09;5096899;28;20185;-75
2021/12/27 09:19:51;;;;;;;12.80;11.47;;;;;;;5.10;96.60;99656.53;5096848;28;20193;-75
2021/12/27 09:22:18;;;;;;;14.43;12.00;;;;;;;5.16;96.39;99651.13;5096765;28;20671;-75
2021/12/27 09:24:46;;;;;;;12.00;10.97;;;;;;;5.22;96.09;99656.09;5095428;28;20540;-75
2021/12/27 09:27:13;;;;;;;11.53;10.47;;;;;;;5.28;96.19;99655.00;5096648;28;20694;-75
2021/12/27 09:29:42;;;;;;;12.17;11.17;;;;;;;5.44;95.79;99661.34;5129640;27;20244;-75
2021/12/27 09:32:10;;;;;;;10.73;9.80;;;;;;;5.47;95.83;99652.56;5096570;28;20194;-75
2021/12/27 09:34:38;;;;;;;11.30;10.33;;;;;;;5.50;95.30;99647.25;5095529;28;20210;-75
2021/12/27 09:37:05;;;;;;;10.80;9.73;;;;;;;5.63;94.13;99643.28;5095587;28;20212;-75
2021/12/27 09:39:32;;;;;;;9.90;9.23;;;;;;;5.65;94.13;99638.91;5097023;28;20190;-75
2021/12/27 09:42:00;;;;;;;10.93;9.83;;;;;;;5.59;93.91;99636.53;5096966;28;20186;-75
2021/12/27 09:44:26;;;;;;;9.17;8.47;;;;;;;5.62;93.76;99641.59;5096247;28;20213;-75
2021/12/27 09:46:53;;;;;;;9.83;9.27;;;;;;;5.61;93.81;99642.50;5094984;28;20228;-75
2021/12/27 09:49:21;;;;;;;10.60;9.60;;;;;;;5.69;94.02;99645.66;5078567;28;20190;-75
2021/12/27 09:51:50;;;;;;;9.70;9.00;;;;;;;5.82;93.81;99642.59;5095599;28;20202;-75
2021/12/27 09:54:17;;;;;;;14.33;12.37;;;;;;;5.82;93.63;99629.59;5096018;28;20666;-75
2021/12/27 09:56:44;;;;;;;13.47;8.40;;;;;;;5.93;92.85;99623.13;5096924;28;20548;-75
2021/12/27 09:59:11;;;;;;;7.97;7.33;;;;;;;5.99;92.77;99622.00;5096623;28;20194;-75
2021/12/27 10:01:38;;;;;;;8.07;7.57;;;;;;;6.09;92.87;99615.56;5096032;28;20186;-75
2021/12/27 10:04:05;;;;;;;8.43;7.73;;;;;;;6.27;92.02;99612.19;5096022;28;20185;-75
2021/12/27 10:06:31;;;;;;;8.10;7.60;;;;;;;6.32;91.62;99610.25;5095845;28;20214;-75
2021/12/27 10:09:01;;;;;;;7.90;7.30;;;;;;;6.45;91.78;99617.53;5096183;28;20174;-75
2021/12/27 10:11:31;;;;;;;8.10;7.63;;;;;;;6.53;91.11;99618.06;5095904;28;20562;-75
2021/12/27 10:14:10;;;;;;;6.00;5.70;;;;;;;6.47;90.82;99613.94;5096158;28;20174;-75
2021/12/27 10:16:47;;;;;;;7.27;6.83;;;;;;;6.55;90.55;99608.41;5095955;28;20303;-75
2021/12/27 10:19:16;;;;;;;6.47;6.27;;;;;;;6.69;89.85;99613.88;5096007;28;20619;-75
2021/12/27 10:21:45;;;;;;;7.03;6.53;;;;;;;6.79;89.90;99609.97;5095664;28;20186;-75
2021/12/27 10:24:28;;;;;;;6.47;6.23;;;;;;;6.98;89.59;99606.56;5094471;28;20182;-75
2021/12/27 10:27:01;;;;;;;6.40;6.10;;;;;;;7.03;89.20;99604.59;5096008;28;20716;-75
2021/12/27 10:29:30;;;;;;;7.57;6.87;;;;;;;6.96;89.56;99605.78;5095771;28;20643;-75
2021/12/27 10:32:04;;;;;;;7.07;6.57;;;;;;;7.02;89.25;99589.91;5095415;28;20188;-75
2021/12/27 10:34:36;;;;;;;6.50;6.20;;;;;;;7.05;89.47;99593.19;5095462;28;20188;-75
2021/12/27 10:37:18;;;;;;;5.27;5.13;;;;;;;7.11;89.15;99585.13;5095904;28;20177;-75
2021/12/27 10:39:55;;;;;;;4.93;4.87;;;;;;;7.21;88.08;99595.94;5095632;28;20264;-75
2021/12/27 10:42:26;;;;;;;4.27;4.27;;;;;;;7.20;87.98;99594.25;5094886;28;20200;-75
2021/12/27 10:45:00;;;;;;;4.77;4.43;;;;;;;7.16;87.87;99600.53;5095573;28;20213;-75
2021/12/27 10:47:32;;;;;;;4.97;4.87;;;;;;;7.15;88.07;99591.03;5095690;28;20198;-75
2021/12/27 10:50:06;;;;;;;4.83;4.73;;;;;;;7.09;88.27;99583.50;5095695;28;20639;-75
2021/12/27 10:53:04;;;;;;;5.57;5.37;;;;;;;7.21;88.22;99589.91;5095564;28;20185;-75
2021/12/27 10:55:38;;;;;;;5.80;5.17;;;;;;;7.27;88.20;99584.41;5082693;28;20226;-74
2021/12/27 10:58:18;;;;;;;5.07;4.77;;;;;;;7.24;87.97;99580.22;5095443;28;20526;-74
2021/12/27 11:00:49;;;;;;;4.37;4.33;;;;;;;7.25;88.09;99576.69;5095140;28;20230;-74
2021/12/27 11:03:23;;;;;;;4.83;4.63;;;;;;;7.33;88.02;99574.56;5094960;28;20201;-74
2021/12/27 11:05:50;;;;;;;4.77;4.63;;;;;;;7.36;87.74;99584.00;5094880;28;20206;-74
2021/12/27 11:08:17;;;;;;;5.07;4.97;;;;;;;7.29;87.98;99583.44;5093578;28;20204;-74
2021/12/27 11:10:43;;;;;;;4.87;4.60;;;;;;;7.33;87.84;99573.72;5094619;28;20194;-74
2021/12/27 11:13:10;;;;;;;4.93;4.83;;;;;;;7.36;87.82;99571.84;5094932;28;20186;-74
2021/12/27 11:15:37;;;;;;;4.30;4.30;;;;;;;7.40;87.83;99570.75;5094620;28;20217;-75
2021/12/27 11:18:04;;;;;;;5.13;5.03;;;;;;;7.44;87.77;99561.91;5094547;28;20566;-75
2021/12/27 11:20:31;;;;;;;4.83;4.73;;;;;;;7.41;88.04;99567.22;5094514;28;20186;-75
2021/12/27 11:22:59;;;;;;;4.40;4.30;;;;;;;7.54;87.39;99562.31;5094752;28;20193;-75
2021/12/27 11:25:32;;;;;;;4.97;4.87;;;;;;;7.51;87.41;99548.59;5094370;28;20212;-75
2021/12/27 11:28:00;;;;;;;4.93;4.70;;;;;;;7.53;87.27;99549.34;5093053;28;20691;-75
2021/12/27 11:30:32;;;;;;;4.43;4.23;;;;;;;7.50;87.51;99552.97;5094296;28;20660;-75
2021/12/27 11:33:15;;;;;;;5.00;4.90;;;;;;;7.55;87.62;99542.31;5094466;28;20175;-76
2021/12/27 11:35:51;;;;;;;4.40;4.40;;;;;;;7.69;86.75;99540.72;5094529;28;20217;-75
2021/12/27 11:38:34;;;;;;;3.90;3.90;;;;;;;7.71;87.42;99532.81;5094221;28;20187;-75
2021/12/27 11:41:03;;;;;;;4.50;4.40;;;;;;;7.93;87.14;99528.28;5094812;28;20177;-75